createdAt,value
2022-10-13T00:00:09.868Z,11.30
2022-10-13T00:03:15.420Z,12.10
2022-10-13T00:06:20.713Z,12.25
2022-10-13T00:09:23.576Z,12.00
2022-10-13T00:12:26.380Z,11.57
2022-10-13T00:15:30.627Z,11.63
2022-10-13T00:18:33.447Z,11.38
2022-10-13T00:21:36.246Z,11.32
2022-10-13T00:24:39.031Z,11.98
2022-10-13T00:27:42.907Z,11.27
2022-10-13T00:30:48.654Z,12.23
2022-10-13T00:33:52.758Z,9.45
2022-10-13T00:36:56.469Z,10.00
2022-10-13T00:40:00.512Z,10.13
2022-10-13T00:43:03.432Z,11.15
2022-10-13T00:46:07.572Z,11.57
2022-10-13T00:49:14.181Z,10.32
2022-10-13T00:52:23.322Z,10.73
2022-10-13T00:55:30.735Z,10.25
2022-10-13T00:58:33.731Z,11.15
2022-10-13T01:01:37.982Z,11.32
2022-10-13T01:04:44.021Z,10.40
2022-10-13T01:07:49.403Z,9.50
2022-10-13T01:11:03.426Z,10.10
2022-10-13T01:14:18.088Z,10.48
2022-10-13T01:17:31.639Z,10.75
2022-10-13T01:20:58.953Z,10.45
2022-10-13T01:24:29.356Z,9.88
2022-10-13T01:28:11.303Z,8.95
2022-10-13T01:31:22.003Z,9.98
2022-10-13T01:34:30.105Z,9.48
2022-10-13T01:37:38.273Z,10.07
2022-10-13T01:40:47.052Z,10.68
2022-10-13T01:43:54.819Z,9.65
2022-10-13T01:47:01.806Z,9.35
2022-10-13T01:50:07.178Z,9.60
2022-10-13T01:53:14.784Z,9.50
2022-10-13T01:56:17.884Z,10.50
2022-10-13T01:59:25.371Z,9.98
2022-10-13T02:02:36.081Z,8.40
2022-10-13T02:05:49.291Z,9.02
2022-10-13T02:08:59.755Z,9.18
2022-10-13T02:12:08.256Z,8.18
2022-10-13T02:15:17.444Z,9.02
2022-10-13T02:18:26.680Z,9.55
2022-10-13T02:21:29.716Z,9.35
2022-10-13T02:24:33.817Z,9.05
2022-10-13T02:27:36.612Z,8.85
2022-10-13T02:30:40.947Z,9.68
2022-10-13T02:33:45.134Z,9.00
2022-10-13T02:36:48.109Z,8.60
2022-10-13T02:39:50.865Z,9.30
2022-10-13T02:42:55.743Z,8.68
2022-10-13T02:45:58.520Z,8.07
2022-10-13T02:49:02.798Z,8.38
2022-10-13T02:52:06.437Z,7.85
2022-10-13T02:55:09.756Z,8.60
2022-10-13T02:58:13.945Z,8.70
2022-10-13T03:01:17.207Z,7.85
2022-10-13T03:04:21.357Z,8.63
2022-10-13T03:07:25.244Z,8.48
2022-10-13T03:10:28.191Z,8.38
2022-10-13T03:13:31.526Z,8.05
2022-10-13T03:16:42.496Z,9.02
2022-10-13T03:19:47.483Z,9.10
2022-10-13T03:22:53.976Z,10.00
2022-10-13T03:25:56.933Z,9.02
2022-10-13T03:28:59.787Z,10.25
2022-10-13T03:32:02.816Z,9.35
2022-10-13T03:35:07.710Z,8.23
2022-10-13T03:38:11.403Z,9.73
2022-10-13T03:41:16.813Z,10.45
2022-10-13T03:44:24.097Z,11.60
2022-10-13T03:47:26.874Z,11.23
2022-10-13T03:50:31.039Z,10.27
2022-10-13T03:53:34.258Z,10.38
2022-10-13T03:56:37.290Z,10.65
2022-10-13T03:59:40.453Z,12.68
2022-10-13T04:02:43.468Z,12.35
2022-10-13T04:05:48.111Z,11.25
2022-10-13T04:08:51.638Z,11.50
2022-10-13T04:11:54.747Z,11.98
2022-10-13T04:14:57.501Z,12.60
2022-10-13T04:18:00.288Z,12.50
2022-10-13T04:21:09.207Z,12.52
2022-10-13T04:24:13.943Z,13.75
2022-10-13T04:27:19.099Z,16.23
2022-10-13T04:30:21.988Z,13.35
2022-10-13T04:33:24.798Z,12.95
2022-10-13T04:36:29.032Z,13.75
2022-10-13T04:39:31.836Z,14.35
2022-10-13T04:42:35.097Z,15.85
2022-10-13T04:45:37.941Z,15.43
2022-10-13T04:48:40.876Z,15.75
2022-10-13T04:51:45.146Z,16.25
2022-10-13T04:54:47.970Z,16.60
2022-10-13T04:57:50.736Z,19.02
2022-10-13T05:00:53.551Z,18.60
2022-10-13T05:03:58.710Z,16.52
2022-10-13T05:07:17.510Z,18.08
2022-10-13T05:10:21.631Z,18.85
2022-10-13T05:13:26.911Z,18.10
2022-10-13T05:16:33.341Z,17.55
2022-10-13T05:19:36.166Z,18.90
2022-10-13T05:22:40.288Z,16.75
2022-10-13T05:25:43.170Z,21.38
2022-10-13T05:28:49.261Z,21.60
2022-10-13T05:31:52.174Z,22.58
2022-10-13T05:34:54.966Z,23.73
2022-10-13T05:37:59.117Z,23.50
2022-10-13T05:41:05.791Z,24.50
2022-10-13T05:44:09.996Z,26.38
2022-10-13T05:47:18.161Z,24.17
2022-10-13T05:50:21.135Z,22.98
2022-10-13T05:53:26.891Z,21.63
2022-10-13T05:56:34.153Z,19.92
2022-10-13T05:59:40.904Z,18.02
2022-10-13T06:02:48.118Z,16.73
2022-10-13T06:05:51.023Z,17.02
2022-10-13T06:08:55.215Z,15.77
2022-10-13T06:11:58.411Z,14.90
2022-10-13T06:15:01.227Z,15.00
2022-10-13T06:18:08.835Z,14.75
2022-10-13T06:21:11.813Z,13.60
2022-10-13T06:24:15.998Z,13.23
2022-10-13T06:27:18.787Z,14.40
2022-10-13T06:30:23.369Z,14.32
2022-10-13T06:33:26.500Z,12.05
2022-10-13T06:36:29.341Z,14.02
2022-10-13T06:39:33.545Z,13.45
2022-10-13T06:42:39.671Z,13.60
2022-10-13T06:45:45.483Z,13.70
2022-10-13T06:48:50.453Z,13.63
2022-10-13T06:51:53.487Z,13.68
2022-10-13T06:54:57.663Z,15.18
2022-10-13T06:58:00.479Z,13.43
2022-10-13T07:01:03.518Z,11.57
2022-10-13T07:04:06.832Z,11.88
2022-10-13T07:07:09.608Z,10.80
2022-10-13T07:10:13.965Z,10.77
2022-10-13T07:13:16.764Z,12.23
2022-10-13T07:16:19.621Z,12.73
2022-10-13T07:19:22.727Z,12.93
2022-10-13T07:22:25.557Z,13.88
2022-10-13T07:25:29.828Z,12.55
2022-10-13T07:28:32.712Z,13.40
2022-10-13T07:31:35.532Z,13.85
2022-10-13T07:34:38.330Z,12.73
2022-10-13T07:37:41.217Z,13.52
2022-10-13T07:40:45.345Z,11.07
2022-10-13T07:43:48.138Z,12.05
2022-10-13T07:46:50.999Z,13.20
2022-10-13T07:49:54.698Z,12.98
2022-10-13T07:52:57.520Z,11.57
2022-10-13T07:56:02.686Z,13.75
2022-10-13T07:59:05.913Z,11.85
2022-10-13T08:02:10.205Z,12.43
2022-10-13T08:05:12.998Z,11.30
2022-10-13T08:08:15.796Z,10.07
2022-10-13T08:11:19.938Z,12.20
2022-10-13T08:14:22.706Z,11.95
2022-10-13T08:17:25.477Z,11.00
2022-10-13T08:20:40.856Z,12.68
2022-10-13T08:23:47.081Z,12.93
2022-10-13T08:26:51.947Z,11.23
2022-10-13T08:29:54.963Z,10.80
2022-10-13T08:32:57.849Z,11.20
2022-10-13T08:36:00.680Z,10.68
2022-10-13T08:39:03.568Z,10.60
2022-10-13T08:42:18.293Z,11.48
2022-10-13T08:45:42.090Z,11.75
2022-10-13T08:48:45.266Z,11.20
2022-10-13T08:51:48.121Z,11.13
2022-10-13T08:54:51.981Z,11.55
2022-10-13T08:57:57.584Z,12.52
2022-10-13T09:01:14.183Z,11.30
2022-10-13T09:04:29.470Z,11.20
2022-10-13T09:07:36.180Z,9.48
2022-10-13T09:10:47.999Z,11.13
2022-10-13T09:13:58.646Z,11.10
2022-10-13T09:20:27.589Z,12.10
2022-10-13T09:23:30.421Z,10.90
2022-10-13T09:26:38.623Z,11.18
2022-10-13T09:29:43.757Z,10.75
2022-10-13T09:32:49.050Z,10.23
2022-10-13T09:36:14.352Z,14.68
2022-10-13T09:39:18.046Z,9.55
2022-10-13T09:42:26.593Z,9.30
2022-10-13T09:45:33.141Z,10.55
2022-10-13T09:48:37.795Z,10.10
2022-10-13T09:51:44.806Z,11.85
2022-10-13T09:54:57.816Z,10.98
2022-10-13T09:58:06.602Z,9.77
2022-10-13T10:01:21.582Z,10.50
2022-10-13T10:04:30.812Z,9.40
2022-10-13T10:07:34.492Z,10.32
2022-10-13T10:10:40.638Z,11.68
2022-10-13T10:13:45.144Z,10.13
2022-10-13T10:16:54.522Z,10.90
2022-10-13T10:20:04.840Z,11.18
2022-10-13T10:23:12.298Z,10.00
2022-10-13T10:26:23.652Z,11.00
2022-10-13T10:29:41.904Z,11.45
2022-10-13T10:32:54.279Z,10.40
2022-10-13T10:36:16.619Z,9.63
2022-10-13T10:39:28.194Z,9.95
2022-10-13T10:42:51.955Z,9.90
2022-10-13T10:45:58.487Z,9.70
2022-10-13T10:49:13.274Z,11.65
2022-10-13T10:52:24.718Z,11.30
2022-10-13T10:55:38.596Z,11.23
2022-10-13T10:58:50.024Z,11.43
2022-10-13T11:02:03.097Z,11.80
2022-10-13T11:05:07.432Z,11.60
2022-10-13T11:08:28.631Z,11.48
2022-10-13T11:11:37.922Z,12.35
2022-10-13T11:14:47.842Z,11.38
2022-10-13T11:17:50.682Z,11.68
2022-10-13T11:21:00.172Z,11.70
2022-10-13T11:24:02.990Z,10.32
2022-10-13T11:27:24.434Z,12.85
2022-10-13T11:30:50.173Z,10.48
2022-10-13T11:33:56.337Z,11.15
2022-10-13T11:37:03.278Z,10.75
2022-10-13T11:40:19.637Z,11.18
2022-10-13T11:43:35.030Z,11.82
2022-10-13T11:46:55.162Z,11.55
2022-10-13T11:50:08.883Z,11.02
2022-10-13T11:53:18.677Z,9.98
2022-10-13T11:56:22.995Z,10.63
2022-10-13T11:59:29.230Z,10.88
2022-10-13T12:02:32.087Z,10.50
2022-10-13T12:05:35.915Z,10.63
2022-10-13T12:08:40.478Z,9.85
2022-10-13T12:11:43.385Z,10.75
2022-10-13T12:14:50.629Z,11.13
2022-10-13T12:17:54.143Z,10.77
2022-10-13T12:20:58.442Z,10.20
2022-10-13T12:24:10.359Z,10.80
2022-10-13T12:27:21.469Z,10.50
2022-10-13T12:30:27.573Z,10.88
2022-10-13T12:33:34.250Z,9.73
2022-10-13T12:36:37.279Z,10.70
2022-10-13T12:39:41.960Z,10.63
2022-10-13T12:42:45.525Z,10.25
2022-10-13T12:45:48.430Z,9.95
2022-10-13T12:48:51.254Z,9.82
2022-10-13T12:51:59.807Z,8.65
2022-10-13T12:55:04.871Z,9.95
2022-10-13T12:58:18.433Z,8.95
2022-10-13T13:01:28.834Z,9.85
2022-10-13T13:04:41.070Z,9.98
2022-10-13T13:07:53.664Z,9.57
2022-10-13T13:10:58.858Z,9.70
2022-10-13T13:14:34.468Z,9.57
2022-10-13T13:21:01.897Z,9.35
2022-10-13T13:24:16.273Z,9.00
2022-10-13T13:27:28.084Z,9.80
2022-10-13T13:30:31.057Z,9.55
2022-10-13T13:33:33.877Z,9.93
2022-10-13T13:36:37.825Z,9.75
2022-10-13T13:39:40.646Z,10.02
2022-10-13T13:42:45.053Z,8.82
2022-10-13T13:45:47.901Z,9.88
2022-10-13T13:48:51.030Z,9.95
2022-10-13T13:51:53.847Z,9.82
2022-10-13T13:54:57.092Z,9.45
2022-10-13T13:58:01.358Z,9.07
2022-10-13T14:01:04.219Z,9.43
2022-10-13T14:04:07.025Z,9.90
2022-10-13T14:07:09.859Z,9.05
2022-10-13T14:10:12.701Z,10.68
2022-10-13T14:13:16.913Z,9.68
2022-10-13T14:16:19.770Z,8.20
2022-10-13T14:19:22.583Z,10.10
2022-10-13T14:22:25.583Z,10.80
2022-10-13T14:25:28.734Z,8.82
2022-10-13T14:28:32.882Z,9.82
2022-10-13T14:31:36.659Z,8.85
2022-10-13T14:34:39.422Z,10.07
2022-10-13T14:37:42.237Z,9.75
2022-10-13T14:40:45.031Z,10.15
2022-10-13T14:43:52.760Z,9.90
2022-10-13T14:46:55.617Z,9.48
2022-10-13T14:49:59.026Z,9.43
2022-10-13T14:53:01.849Z,9.25
2022-10-13T14:56:17.126Z,10.73
2022-10-13T14:59:26.612Z,10.93
2022-10-13T15:02:29.452Z,9.80
2022-10-13T15:05:32.239Z,8.73
2022-10-13T15:08:35.023Z,11.23
2022-10-13T15:11:37.893Z,9.95
2022-10-13T15:14:42.022Z,9.65
2022-10-13T15:17:44.796Z,11.15
2022-10-13T15:20:47.900Z,11.82
2022-10-13T15:23:52.383Z,11.50
2022-10-13T15:26:55.544Z,9.57
2022-10-13T15:30:04.267Z,11.45
2022-10-13T15:33:07.049Z,11.40
2022-10-13T15:36:10.006Z,11.57
2022-10-13T15:39:15.491Z,10.38
2022-10-13T15:42:18.396Z,11.98
2022-10-13T15:45:22.728Z,10.57
2022-10-13T15:48:25.515Z,10.68
2022-10-13T15:51:28.732Z,11.43
2022-10-13T15:54:32.049Z,11.07
2022-10-13T15:57:34.891Z,12.43
2022-10-13T16:00:39.971Z,10.60
2022-10-13T16:03:43.222Z,11.45
2022-10-13T16:06:45.996Z,11.57
2022-10-13T16:09:48.815Z,12.02
2022-10-13T16:12:51.608Z,11.95
2022-10-13T16:15:59.475Z,10.25
2022-10-13T16:19:02.332Z,11.95
2022-10-13T16:22:05.212Z,11.07
2022-10-13T16:25:09.115Z,9.55
2022-10-13T16:28:11.924Z,11.20
2022-10-13T16:31:17.994Z,9.85
2022-10-13T16:34:22.699Z,9.75
2022-10-13T16:37:25.574Z,11.95
2022-10-13T16:40:28.814Z,9.88
2022-10-13T16:43:32.305Z,10.00
2022-10-13T16:46:36.503Z,10.40
2022-10-13T16:49:39.368Z,11.63
2022-10-13T16:52:46.182Z,10.27
2022-10-13T16:55:49.043Z,10.18
2022-10-13T16:58:55.347Z,10.25
2022-10-13T17:01:59.615Z,9.50
2022-10-13T17:05:02.426Z,10.82
2022-10-13T17:08:05.816Z,8.82
2022-10-13T17:11:09.376Z,10.40
2022-10-13T17:14:12.177Z,12.38
2022-10-13T17:17:18.138Z,9.07
2022-10-13T17:20:21.173Z,10.10
2022-10-13T17:23:27.408Z,9.65
2022-10-13T17:26:30.159Z,10.07
2022-10-13T17:29:32.937Z,9.40
2022-10-13T17:32:40.068Z,9.00
2022-10-13T17:35:42.851Z,11.20
2022-10-13T17:38:46.058Z,10.25
2022-10-13T17:41:48.826Z,9.55
2022-10-13T17:44:51.615Z,10.13
2022-10-13T17:47:58.663Z,9.02
2022-10-13T17:51:03.478Z,9.80
2022-10-13T17:54:09.086Z,9.32
2022-10-13T17:57:14.548Z,8.80
2022-10-13T18:00:17.965Z,10.00
2022-10-13T18:03:24.181Z,8.35
2022-10-13T18:06:27.232Z,8.98
2022-10-13T18:09:30.085Z,8.55
2022-10-13T18:12:33.054Z,12.13
2022-10-13T18:15:37.048Z,8.60
2022-10-13T18:18:41.552Z,9.13
2022-10-13T18:21:44.855Z,8.20
2022-10-13T18:24:47.929Z,8.68
2022-10-13T18:27:50.719Z,9.30
2022-10-13T18:30:53.483Z,9.27
2022-10-13T18:34:00.022Z,8.93
2022-10-13T18:37:05.575Z,9.30
2022-10-13T18:40:09.809Z,9.48
2022-10-13T18:43:12.603Z,9.70
2022-10-13T18:46:15.486Z,8.63
2022-10-13T18:49:23.098Z,8.48
2022-10-13T18:52:25.981Z,10.93
2022-10-13T18:55:29.788Z,8.80
2022-10-13T18:58:32.915Z,10.10
2022-10-13T19:01:37.536Z,9.30
2022-10-13T19:04:42.105Z,9.00
2022-10-13T19:07:44.891Z,9.00
2022-10-13T19:10:47.636Z,9.23
2022-10-13T19:13:51.082Z,8.52
2022-10-13T19:16:57.064Z,8.23
2022-10-13T19:20:06.756Z,9.30
2022-10-13T19:23:16.555Z,8.77
2022-10-13T19:26:21.473Z,9.13
2022-10-13T19:29:24.338Z,8.68
2022-10-13T19:32:27.188Z,8.73
2022-10-13T19:35:31.322Z,7.78
2022-10-13T19:38:34.151Z,8.23
2022-10-13T19:41:36.931Z,10.30
2022-10-13T19:44:40.239Z,9.07
2022-10-13T19:47:43.025Z,8.82
2022-10-13T19:50:47.156Z,9.82
2022-10-13T19:53:51.248Z,9.70
2022-10-13T19:56:54.288Z,9.80
2022-10-13T19:59:57.085Z,9.30
2022-10-13T20:02:59.865Z,10.80
2022-10-13T20:06:06.885Z,9.30
2022-10-13T20:09:14.371Z,8.88
2022-10-13T20:12:17.256Z,9.60
2022-10-13T20:15:22.383Z,9.73
2022-10-13T20:18:26.143Z,9.10
2022-10-13T20:21:30.439Z,8.88
2022-10-13T20:24:33.203Z,10.05
2022-10-13T20:27:36.938Z,9.98
2022-10-13T20:30:40.756Z,9.85
2022-10-13T20:33:43.774Z,8.20
2022-10-13T20:36:50.277Z,9.98
2022-10-13T20:39:53.133Z,9.23
2022-10-13T20:42:56.007Z,8.80
2022-10-13T20:46:02.340Z,10.13
2022-10-13T20:49:11.001Z,10.07
2022-10-13T20:52:15.814Z,9.65
2022-10-13T20:55:22.350Z,8.43
2022-10-13T20:58:26.391Z,9.60
2022-10-13T21:01:29.323Z,9.60
2022-10-13T21:04:32.129Z,10.20
2022-10-13T21:07:36.317Z,10.18
2022-10-13T21:10:39.209Z,10.20
2022-10-13T21:13:44.870Z,9.40
2022-10-13T21:16:47.656Z,9.52
2022-10-13T21:19:50.479Z,10.38
2022-10-13T21:22:54.644Z,10.73
2022-10-13T21:25:57.415Z,12.70
2022-10-13T21:29:00.591Z,11.20
2022-10-13T21:32:03.537Z,10.48
2022-10-13T21:35:06.905Z,11.63
2022-10-13T21:38:11.030Z,10.68
2022-10-13T21:41:15.769Z,10.55
2022-10-13T21:44:18.579Z,11.32
2022-10-13T21:47:21.687Z,10.23
2022-10-13T21:50:24.867Z,10.57
2022-10-13T21:53:29.005Z,10.90
2022-10-13T21:56:33.491Z,10.07
2022-10-13T21:59:36.297Z,10.77
2022-10-13T22:02:39.168Z,10.98
2022-10-13T22:05:43.543Z,9.75
2022-10-13T22:08:49.261Z,9.02
2022-10-13T22:11:57.579Z,10.95
2022-10-13T22:15:00.388Z,8.82
2022-10-13T22:18:03.351Z,10.85
2022-10-13T22:21:08.969Z,10.20
2022-10-13T22:24:15.351Z,9.60
2022-10-13T22:27:18.572Z,9.73
2022-10-13T22:30:21.589Z,9.38
2022-10-13T22:33:24.361Z,9.98
2022-10-13T22:36:30.801Z,10.80
2022-10-13T22:39:34.990Z,10.05
2022-10-13T22:42:44.170Z,12.05
2022-10-13T22:45:51.244Z,10.73
2022-10-13T22:48:54.446Z,10.40
2022-10-13T22:51:57.224Z,10.57
2022-10-13T22:55:01.373Z,9.52
2022-10-13T22:58:04.145Z,9.63
2022-10-13T23:01:07.293Z,9.85
2022-10-13T23:04:10.094Z,10.40
2022-10-13T23:07:12.876Z,11.52
2022-10-13T23:10:16.996Z,10.32
2022-10-13T23:13:19.767Z,10.23
2022-10-13T23:16:26.458Z,9.65
2022-10-13T23:19:29.396Z,9.35
2022-10-13T23:22:32.266Z,10.90
2022-10-13T23:25:36.848Z,10.10
2022-10-13T23:28:39.883Z,10.25
2022-10-13T23:31:42.681Z,9.27
2022-10-13T23:34:46.381Z,10.25
2022-10-13T23:37:49.159Z,8.88
2022-10-13T23:40:53.898Z,9.90
2022-10-13T23:43:56.819Z,9.43
2022-10-13T23:46:59.590Z,11.35
2022-10-13T23:50:02.399Z,9.68
2022-10-13T23:53:05.351Z,10.45
2022-10-13T23:56:11.229Z,10.80
2022-10-13T23:59:14.393Z,10.13
